Time;durP1;ratioP1;P1;durP2;ratioP2;P2;SDS_P1;SDS_P2;PMS_P1;PMS_P2;Temp;Humidity;BMP_temperature;BMP_pressure;BME280_temperature;BME280_humidity;BME280_pressure;Samples;Min_cycle;Max_cycle;Signal;HPM_P1;HPM_P2
2020/12/25 00:00:56;;;;;;;6.82;3.58;;;;;;;;;;4973655;28;20421;-62
2020/12/25 00:03:34;;;;;;;4.72;3.60;;;;;;;;;;4974155;28;20051;-62
2020/12/25 00:06:00;;;;;;;4.32;2.83;;;;;;;;;;4972953;28;20090;-62
2020/12/25 00:08:26;;;;;;;4.43;3.20;;;;;;;;;;4974090;28;20055;-62
2020/12/25 00:10:53;;;;;;;5.03;2.63;;;;;;;;;;4973147;28;20047;-61
2020/12/25 00:13:19;;;;;;;4.15;3.33;;;;;;;;;;4973277;28;20070;-61
2020/12/25 00:15:46;;;;;;;4.85;3.70;;;;;;;;;;4973022;28;20139;-62
2020/12/25 00:18:12;;;;;;;3.80;3.38;;;;;;;;;;4973452;28;20055;-62
2020/12/25 00:20:50;;;;;;;4.25;2.95;;;;;;;;;;4973561;28;20444;-60
2020/12/25 00:23:16;;;;;;;3.95;3.35;;;;;;;;;;4973532;28;20051;-61
2020/12/25 00:25:42;;;;;;;4.18;3.28;;;;;;;;;;4972738;28;20078;-61
2020/12/25 00:28:09;;;;;;;3.88;3.22;;;;;;;;;;4973372;28;20125;-61
2020/12/25 00:30:35;;;;;;;5.15;3.28;;;;;;;;;;4973512;28;20081;-62
2020/12/25 00:33:01;;;;;;;4.18;3.03;;;;;;;;;;4972590;28;20130;-61
2020/12/25 00:35:27;;;;;;;3.28;2.88;;;;;;;;;;4972451;28;20082;-61
2020/12/25 00:37:53;;;;;;;3.42;2.95;;;;;;;;;;4973307;28;20042;-61
2020/12/25 00:40:19;;;;;;;3.10;2.70;;;;;;;;;;4973300;28;20042;-61
2020/12/25 00:42:45;;;;;;;3.60;2.95;;;;;;;;;;4972880;28;20203;-59
2020/12/25 00:45:11;;;;;;;3.22;2.63;;;;;;;;;;4972546;28;20054;-60
2020/12/25 00:47:37;;;;;;;4.80;3.00;;;;;;;;;;4973094;28;20448;-59
2020/12/25 00:50:03;;;;;;;5.03;3.40;;;;;;;;;;4972940;28;20074;-59
2020/12/25 00:52:29;;;;;;;4.68;3.28;;;;;;;;;;4972762;28;20047;-59
2020/12/25 00:54:55;;;;;;;6.53;3.60;;;;;;;;;;4972986;28;20046;-59
2020/12/25 00:57:21;;;;;;;5.07;3.17;;;;;;;;;;4972175;28;20093;-60
2020/12/25 00:59:47;;;;;;;5.88;3.75;;;;;;;;;;4973173;28;20082;-61
2020/12/25 01:02:14;;;;;;;5.70;3.58;;;;;;;;;;4972371;28;20117;-63
2020/12/25 01:04:40;;;;;;;8.07;4.07;;;;;;;;;;4973083;28;20512;-61
2020/12/25 01:07:06;;;;;;;5.50;3.65;;;;;;;;;;4972318;28;20082;-62
2020/12/25 01:09:33;;;;;;;6.38;3.80;;;;;;;;;;4972555;28;20070;-60
2020/12/25 01:11:59;;;;;;;5.60;4.28;;;;;;;;;;4973169;28;20051;-59
2020/12/25 01:14:29;;;;;;;6.10;3.95;;;;;;;;;;4972725;28;20172;-60
2020/12/25 01:16:56;;;;;;;5.55;3.85;;;;;;;;;;4972240;28;20038;-61
2020/12/25 01:19:25;;;;;;;4.60;2.88;;;;;;;;;;4970683;28;20105;-59
2020/12/25 01:25:32;;;;;;;5.05;3.28;;;;;;;;;;4985829;23;20464;-60
2020/12/25 01:27:58;;;;;;;4.90;3.42;;;;;;;;;;4978277;28;20046;-60
2020/12/25 01:30:25;;;;;;;8.30;3.92;;;;;;;;;;4961729;28;20051;-59
2020/12/25 01:32:51;;;;;;;7.63;4.55;;;;;;;;;;4962038;28;20488;-59
2020/12/25 01:35:17;;;;;;;6.28;3.95;;;;;;;;;;4961378;28;20417;-60
2020/12/25 01:37:43;;;;;;;6.40;4.30;;;;;;;;;;4961967;28;20050;-60
2020/12/25 01:40:09;;;;;;;6.18;4.18;;;;;;;;;;4961506;28;20081;-61
2020/12/25 01:49:17;;;;;;;7.75;4.45;;;;;;;;;;4937750;23;20050;-60
2020/12/25 01:51:44;;;;;;;8.85;4.53;;;;;;;;;;4978004;28;20054;-59
2020/12/25 01:54:10;;;;;;;7.45;4.53;;;;;;;;;;4977546;28;20047;-61
2020/12/25 01:56:36;;;;;;;8.23;5.00;;;;;;;;;;4960887;28;20512;-62
2020/12/25 01:59:03;;;;;;;7.43;4.90;;;;;;;;;;4961378;28;20054;-60
2020/12/25 02:01:29;;;;;;;8.70;5.18;;;;;;;;;;4961972;28;20046;-61
2020/12/25 02:03:55;;;;;;;11.35;6.00;;;;;;;;;;4961682;28;20054;-61
2020/12/25 02:06:21;;;;;;;16.55;7.28;;;;;;;;;;4961100;28;20394;-61
2020/12/25 02:08:48;;;;;;;9.50;6.05;;;;;;;;;;4961351;28;20504;-62
2020/12/25 02:11:14;;;;;;;11.90;6.43;;;;;;;;;;4961680;28;20374;-62
2020/12/25 02:13:40;;;;;;;10.55;6.22;;;;;;;;;;4961772;28;20057;-62
2020/12/25 02:16:07;;;;;;;9.38;6.25;;;;;;;;;;4942320;28;20501;-61
2020/12/25 02:18:37;;;;;;;11.95;6.68;;;;;;;;;;4945877;28;20058;-60
2020/12/25 02:21:03;;;;;;;11.70;7.22;;;;;;;;;;4961505;28;20125;-61
2020/12/25 02:23:30;;;;;;;11.30;6.85;;;;;;;;;;4961582;28;20050;-61
2020/12/25 02:25:56;;;;;;;12.20;7.35;;;;;;;;;;4960750;28;20046;-60
2020/12/25 02:28:22;;;;;;;11.80;7.63;;;;;;;;;;4961669;28;20378;-60
2020/12/25 02:30:48;;;;;;;16.02;8.48;;;;;;;;;;4961581;28;20393;-60
2020/12/25 02:33:14;;;;;;;13.77;8.13;;;;;;;;;;4945590;28;20047;-60
2020/12/25 02:35:41;;;;;;;15.70;8.52;;;;;;;;;;4957791;28;20077;-61
2020/12/25 02:38:07;;;;;;;16.13;9.57;;;;;;;;;;4958843;28;20069;-59
2020/12/25 02:40:34;;;;;;;16.45;9.13;;;;;;;;;;4958972;28;20054;-59
2020/12/25 02:43:00;;;;;;;20.10;9.85;;;;;;;;;;4958692;28;20047;-60
2020/12/25 02:45:26;;;;;;;18.15;9.73;;;;;;;;;;4957832;28;20058;-61
2020/12/25 02:47:52;;;;;;;16.77;9.32;;;;;;;;;;4958572;28;20066;-60
2020/12/25 02:50:19;;;;;;;17.77;9.65;;;;;;;;;;4957840;28;20042;-60
2020/12/25 02:52:45;;;;;;;17.00;9.30;;;;;;;;;;4958198;28;20086;-59
2020/12/25 02:55:12;;;;;;;16.83;9.23;;;;;;;;;;4956843;28;20047;-61
2020/12/25 02:57:38;;;;;;;18.27;9.32;;;;;;;;;;4958229;28;20054;-59
2020/12/25 03:00:04;;;;;;;15.07;8.90;;;;;;;;;;4957934;28;20054;-60
2020/12/25 03:02:31;;;;;;;15.38;9.00;;;;;;;;;;4958098;28;20383;-61
2020/12/25 03:04:57;;;;;;;13.75;9.10;;;;;;;;;;4957632;28;20432;-61
2020/12/25 03:07:23;;;;;;;15.15;8.73;;;;;;;;;;4957277;28;20379;-61
2020/12/25 03:09:49;;;;;;;14.10;8.88;;;;;;;;;;4957959;28;20054;-64
2020/12/25 03:12:15;;;;;;;17.42;9.63;;;;;;;;;;4957666;28;20113;-62
2020/12/25 03:14:41;;;;;;;12.90;8.65;;;;;;;;;;4957429;28;20046;-61
2020/12/25 03:17:08;;;;;;;14.48;9.43;;;;;;;;;;4957177;28;20051;-62
2020/12/25 03:19:34;;;;;;;16.70;8.63;;;;;;;;;;4957582;28;20090;-60
2020/12/25 03:22:00;;;;;;;16.17;9.45;;;;;;;;;;4957205;28;20058;-60
2020/12/25 03:24:26;;;;;;;16.33;9.13;;;;;;;;;;4957293;28;20047;-61
2020/12/25 03:26:53;;;;;;;14.60;8.80;;;;;;;;;;4956830;28;20062;-60
2020/12/25 03:29:19;;;;;;;15.98;9.52;;;;;;;;;;4957303;28;20498;-61
2020/12/25 03:31:46;;;;;;;13.43;8.65;;;;;;;;;;4957088;28;20113;-62
2020/12/25 03:38:00;;;;;;;12.77;8.00;;;;;;;;;;4978827;23;20143;-61
2020/12/25 03:40:27;;;;;;;13.25;8.40;;;;;;;;;;4956367;28;20062;-61
2020/12/25 03:42:53;;;;;;;11.02;7.90;;;;;;;;;;4956369;28;20051;-61
2020/12/25 03:45:20;;;;;;;14.10;7.78;;;;;;;;;;4955851;28;20061;-61
2020/12/25 03:47:46;;;;;;;14.20;8.82;;;;;;;;;;4956721;28;20054;-60
2020/12/25 03:50:12;;;;;;;14.95;9.15;;;;;;;;;;4956891;28;20054;-60
2020/12/25 03:52:38;;;;;;;15.13;9.50;;;;;;;;;;4957113;28;20050;-61
2020/12/25 03:55:05;;;;;;;14.25;9.23;;;;;;;;;;4956290;28;20053;-61
2020/12/25 03:57:31;;;;;;;17.17;9.82;;;;;;;;;;4940690;28;20506;-60
2020/12/25 03:59:57;;;;;;;15.35;8.75;;;;;;;;;;4939823;28;20062;-61
2020/12/25 04:02:23;;;;;;;15.35;9.05;;;;;;;;;;4956989;28;20054;-61
2020/12/25 04:04:49;;;;;;;16.52;9.23;;;;;;;;;;4953002;29;20057;-61
2020/12/25 04:07:16;;;;;;;13.45;9.23;;;;;;;;;;4952522;29;20078;-61
2020/12/25 04:09:42;;;;;;;16.60;8.95;;;;;;;;;;4953213;29;20055;-61
2020/12/25 04:12:09;;;;;;;14.35;8.98;;;;;;;;;;4953116;29;20507;-62
2020/12/25 04:14:35;;;;;;;15.90;8.63;;;;;;;;;;4953144;29;20394;-61
2020/12/25 04:17:01;;;;;;;16.90;8.75;;;;;;;;;;4953732;29;20055;-60
2020/12/25 04:19:28;;;;;;;13.35;8.15;;;;;;;;;;4956172;28;20054;-59
2020/12/25 04:21:54;;;;;;;12.18;7.90;;;;;;;;;;4956185;28;20170;-60
2020/12/25 04:24:20;;;;;;;13.05;8.05;;;;;;;;;;4956242;28;20051;-60
2020/12/25 04:26:47;;;;;;;14.82;8.40;;;;;;;;;;4955866;28;20053;-60
2020/12/25 04:29:13;;;;;;;13.50;8.52;;;;;;;;;;4956245;28;20050;-59
2020/12/25 04:31:39;;;;;;;13.10;8.18;;;;;;;;;;4956026;28;20046;-60
2020/12/25 04:34:06;;;;;;;13.35;7.68;;;;;;;;;;4955938;28;20063;-60
2020/12/25 04:36:32;;;;;;;13.90;8.07;;;;;;;;;;4955444;28;20058;-61
2020/12/25 04:38:58;;;;;;;14.82;8.30;;;;;;;;;;4956222;28;20054;-60
2020/12/25 04:41:24;;;;;;;17.08;9.32;;;;;;;;;;4956042;28;20069;-60
2020/12/25 04:43:51;;;;;;;14.63;9.13;;;;;;;;;;4956028;28;20061;-61
2020/12/25 04:46:17;;;;;;;13.30;8.55;;;;;;;;;;4939614;28;20047;-60
2020/12/25 04:48:43;;;;;;;13.98;8.23;;;;;;;;;;4956026;28;20057;-62
2020/12/25 04:51:10;;;;;;;14.30;9.27;;;;;;;;;;4972833;28;20105;-61
2020/12/25 04:53:36;;;;;;;13.90;7.78;;;;;;;;;;4956109;28;20413;-61
2020/12/25 04:56:03;;;;;;;16.52;8.80;;;;;;;;;;4955077;28;20077;-61
2020/12/25 04:58:29;;;;;;;16.00;8.63;;;;;;;;;;4955126;28;20050;-61
2020/12/25 05:01:05;;;;;;;13.35;8.68;;;;;;;;;;4955620;28;20081;-61
2020/12/25 05:03:35;;;;;;;17.13;8.98;;;;;;;;;;4955931;28;20053;-61
2020/12/25 05:06:08;;;;;;;17.80;9.50;;;;;;;;;;4955206;28;20055;-61
2020/12/25 05:08:51;;;;;;;13.63;8.43;;;;;;;;;;4955732;28;20062;-62
2020/12/25 05:11:18;;;;;;;12.07;8.07;;;;;;;;;;4955762;28;20069;-61
2020/12/25 05:13:46;;;;;;;13.10;9.00;;;;;;;;;;4955797;28;20417;-61
2020/12/25 05:16:13;;;;;;;13.35;8.63;;;;;;;;;;4954416;28;20398;-61
2020/12/25 05:18:47;;;;;;;14.85;9.80;;;;;;;;;;4955696;28;20046;-62
2020/12/25 05:21:15;;;;;;;15.75;9.38;;;;;;;;;;4955792;28;20178;-60
2020/12/25 05:23:42;;;;;;;15.85;9.40;;;;;;;;;;4955761;28;20055;-61
2020/12/25 05:26:10;;;;;;;12.93;8.90;;;;;;;;;;4954811;28;20066;-61
2020/12/25 05:28:38;;;;;;;14.82;9.05;;;;;;;;;;4955297;28;20493;-62
2020/12/25 05:31:06;;;;;;;14.73;9.98;;;;;;;;;;4955406;28;20059;-62
2020/12/25 05:33:33;;;;;;;15.07;9.13;;;;;;;;;;4955585;28;20043;-61
2020/12/25 05:36:03;;;;;;;16.20;9.00;;;;;;;;;;4954570;28;20050;-61
2020/12/25 05:38:29;;;;;;;14.55;9.77;;;;;;;;;;4955248;28;20058;-62
2020/12/25 05:40:55;;;;;;;13.80;8.73;;;;;;;;;;4955654;28;20397;-61
2020/12/25 05:43:21;;;;;;;13.85;9.18;;;;;;;;;;4955427;28;20061;-60
2020/12/25 05:45:48;;;;;;;12.68;8.65;;;;;;;;;;4954821;28;20449;-62
2020/12/25 05:48:14;;;;;;;17.15;9.27;;;;;;;;;;4955007;28;20054;-60
2020/12/25 05:50:41;;;;;;;15.60;9.50;;;;;;;;;;4955278;28;20059;-62
2020/12/25 05:53:08;;;;;;;14.65;9.32;;;;;;;;;;4955428;28;20062;-60
2020/12/25 05:55:35;;;;;;;13.25;9.10;;;;;;;;;;4954745;28;20066;-61
2020/12/25 05:58:01;;;;;;;16.63;9.98;;;;;;;;;;4939053;28;20066;-61
2020/12/25 06:00:28;;;;;;;18.17;11.10;;;;;;;;;;4938946;28;20532;-60
2020/12/25 06:02:55;;;;;;;17.02;9.82;;;;;;;;;;4955267;28;20050;-59
2020/12/25 06:05:25;;;;;;;19.52;11.23;;;;;;;;;;4954923;28;20047;-59
2020/12/25 06:07:56;;;;;;;17.92;11.10;;;;;;;;;;4954988;28;20123;-60
2020/12/25 06:10:24;;;;;;;20.23;12.25;;;;;;;;;;4957735;28;20420;-60
2020/12/25 06:12:50;;;;;;;17.83;10.43;;;;;;;;;;4958687;28;20054;-59
2020/12/25 06:15:25;;;;;;;22.40;11.27;;;;;;;;;;4958107;28;20057;-60
2020/12/25 06:17:55;;;;;;;17.17;10.52;;;;;;;;;;4942758;28;20047;-60
2020/12/25 06:20:21;;;;;;;19.50;10.15;;;;;;;;;;4958876;28;20141;-59
2020/12/25 06:22:47;;;;;;;18.02;9.73;;;;;;;;;;4927092;28;20058;-60
2020/12/25 06:25:15;;;;;;;16.77;9.32;;;;;;;;;;4942110;28;20061;-60
2020/12/25 06:27:56;;;;;;;17.15;9.82;;;;;;;;;;4958170;28;20477;-61
2020/12/25 06:30:30;;;;;;;15.55;9.50;;;;;;;;;;4958301;28;20047;-60
2020/12/25 06:32:57;;;;;;;15.10;9.77;;;;;;;;;;4958570;28;20058;-60
2020/12/25 06:35:35;;;;;;;16.10;9.98;;;;;;;;;;4957654;28;20059;-60
2020/12/25 06:38:09;;;;;;;17.48;10.57;;;;;;;;;;4957630;28;20053;-61
2020/12/25 06:40:35;;;;;;;17.65;10.48;;;;;;;;;;4943145;28;20058;-61
2020/12/25 06:43:02;;;;;;;20.45;9.98;;;;;;;;;;4958124;28;20055;-62
2020/12/25 06:45:30;;;;;;;15.98;9.90;;;;;;;;;;4957920;28;20066;-62
2020/12/25 06:48:13;;;;;;;17.42;10.57;;;;;;;;;;4973925;28;20055;-62
2020/12/25 06:50:43;;;;;;;21.45;11.23;;;;;;;;;;4958379;28;20056;-61
2020/12/25 06:53:10;;;;;;;15.77;10.25;;;;;;;;;;4958090;28;20050;-61
2020/12/25 06:55:41;;;;;;;18.38;10.93;;;;;;;;;;4957415;28;20062;-60
2020/12/25 06:58:07;;;;;;;19.60;11.10;;;;;;;;;;4957422;28;20405;-61
2020/12/25 07:00:33;;;;;;;18.80;10.02;;;;;;;;;;4942042;28;20042;-61
2020/12/25 07:03:13;;;;;;;17.17;11.00;;;;;;;;;;4957841;28;20058;-61
2020/12/25 07:05:48;;;;;;;17.35;10.88;;;;;;;;;;4957591;28;20042;-62
2020/12/25 07:08:37;;;;;;;23.40;11.75;;;;;;;;;;4957318;28;20555;-61
2020/12/25 07:11:07;;;;;;;19.48;10.65;;;;;;;;;;4957702;28;20075;-61
2020/12/25 07:13:35;;;;;;;17.13;10.15;;;;;;;;;;4957988;28;20047;-62
2020/12/25 07:16:02;;;;;;;18.55;10.50;;;;;;;;;;4956973;28;20066;-60
2020/12/25 07:18:28;;;;;;;19.15;10.43;;;;;;;;;;4957130;28;20054;-61
2020/12/25 07:20:58;;;;;;;15.77;10.02;;;;;;;;;;4956264;28;20046;-61
2020/12/25 07:23:25;;;;;;;18.48;10.70;;;;;;;;;;4954798;28;20058;-61
2020/12/25 07:25:59;;;;;;;17.00;10.18;;;;;;;;;;4956844;28;20047;-60
2020/12/25 07:28:27;;;;;;;17.48;11.32;;;;;;;;;;4958194;28;20393;-61
2020/12/25 07:30:54;;;;;;;26.73;14.50;;;;;;;;;;4958634;28;20054;-61
2020/12/25 07:33:21;;;;;;;18.95;11.65;;;;;;;;;;4950540;28;20055;-61
2020/12/25 07:35:48;;;;;;;17.85;9.85;;;;;;;;;;4955974;28;20070;-61
2020/12/25 07:38:27;;;;;;;21.58;11.95;;;;;;;;;;4939755;29;20044;-61
2020/12/25 07:40:53;;;;;;;18.65;10.07;;;;;;;;;;4937970;29;20046;-61
2020/12/25 07:43:19;;;;;;;15.43;10.13;;;;;;;;;;4937816;29;20050;-61
2020/12/25 07:45:47;;;;;;;20.27;10.90;;;;;;;;;;4937454;29;20055;-60
2020/12/25 07:48:13;;;;;;;20.42;11.40;;;;;;;;;;4937845;29;20055;-60
2020/12/25 07:50:44;;;;;;;16.50;10.27;;;;;;;;;;4938126;29;20051;-61
2020/12/25 07:53:12;;;;;;;14.30;9.57;;;;;;;;;;4937913;29;20401;-61
2020/12/25 07:55:38;;;;;;;15.68;9.82;;;;;;;;;;4961482;28;20081;-60
2020/12/25 07:58:04;;;;;;;14.93;9.45;;;;;;;;;;4955998;28;20039;-60
2020/12/25 08:00:31;;;;;;;15.48;9.07;;;;;;;;;;4957159;28;20050;-60
2020/12/25 08:02:58;;;;;;;16.27;9.43;;;;;;;;;;4956775;28;20058;-61
2020/12/25 08:05:28;;;;;;;16.02;9.18;;;;;;;;;;4955853;28;20050;-60
2020/12/25 08:07:55;;;;;;;14.00;9.20;;;;;;;;;;4957098;28;20055;-61
2020/12/25 08:10:21;;;;;;;14.57;8.88;;;;;;;;;;4956488;28;20489;-61
2020/12/25 08:12:51;;;;;;;16.88;8.63;;;;;;;;;;4956729;28;20057;-61
2020/12/25 08:15:18;;;;;;;19.17;10.38;;;;;;;;;;4939584;28;20058;-62
2020/12/25 08:17:48;;;;;;;16.20;9.52;;;;;;;;;;4955400;28;20039;-63
2020/12/25 08:20:14;;;;;;;18.60;10.07;;;;;;;;;;4956010;28;20055;-62
2020/12/25 08:22:41;;;;;;;22.10;10.68;;;;;;;;;;4956276;28;20509;-63
2020/12/25 08:25:07;;;;;;;17.35;10.77;;;;;;;;;;4956066;28;20125;-66
2020/12/25 08:27:35;;;;;;;18.67;10.90;;;;;;;;;;4956249;28;20042;-64
2020/12/25 08:30:06;;;;;;;17.42;10.00;;;;;;;;;;4956247;28;20050;-64
2020/12/25 08:32:33;;;;;;;21.33;11.00;;;;;;;;;;4955990;28;20494;-62
2020/12/25 08:35:15;;;;;;;12.85;8.98;;;;;;;;;;4955597;28;20047;-62
2020/12/25 08:37:55;;;;;;;17.95;10.00;;;;;;;;;;4956046;28;20050;-63
2020/12/25 08:40:24;;;;;;;20.13;11.15;;;;;;;;;;4956157;28;20453;-63
2020/12/25 08:42:51;;;;;;;21.00;11.15;;;;;;;;;;4956108;28;20043;-64
2020/12/25 08:45:21;;;;;;;18.58;10.52;;;;;;;;;;4955414;28;20405;-63
2020/12/25 08:48:10;;;;;;;19.48;10.23;;;;;;;;;;4956195;28;20049;-62
2020/12/25 08:50:38;;;;;;;20.23;11.20;;;;;;;;;;4956059;28;20513;-64
2020/12/25 08:53:11;;;;;;;16.98;10.50;;;;;;;;;;4955595;28;20094;-62
2020/12/25 08:55:38;;;;;;;17.17;9.95;;;;;;;;;;4955377;28;20533;-62
2020/12/25 08:58:05;;;;;;;16.75;10.90;;;;;;;;;;4955799;28;20102;-63
2020/12/25 09:00:31;;;;;;;18.58;10.75;;;;;;;;;;4955636;28;20509;-63
2020/12/25 09:02:58;;;;;;;20.63;12.10;;;;;;;;;;4955811;28;20047;-62
2020/12/25 09:05:24;;;;;;;22.38;11.68;;;;;;;;;;4955500;28;20378;-61
2020/12/25 09:07:50;;;;;;;19.73;11.50;;;;;;;;;;4955865;28;20046;-63
2020/12/25 09:10:17;;;;;;;17.88;11.02;;;;;;;;;;4955368;28;20057;-64
2020/12/25 09:12:43;;;;;;;20.20;12.07;;;;;;;;;;4955332;28;20046;-63
2020/12/25 09:15:09;;;;;;;19.92;11.43;;;;;;;;;;4954453;28;20101;-64
2020/12/25 09:17:35;;;;;;;26.95;11.90;;;;;;;;;;4955511;28;20050;-64
2020/12/25 09:20:06;;;;;;;20.08;11.35;;;;;;;;;;4955284;28;20051;-65
2020/12/25 09:22:32;;;;;;;18.65;10.15;;;;;;;;;;4939526;28;20039;-64
2020/12/25 09:24:58;;;;;;;21.30;11.20;;;;;;;;;;4939339;28;20050;-63
2020/12/25 09:27:24;;;;;;;19.45;11.25;;;;;;;;;;4939151;28;20505;-64
2020/12/25 09:29:51;;;;;;;20.17;11.65;;;;;;;;;;4955716;28;20517;-63
2020/12/25 09:32:17;;;;;;;18.25;10.65;;;;;;;;;;4955267;28;20500;-64
2020/12/25 09:34:43;;;;;;;17.13;10.85;;;;;;;;;;4970172;23;20055;-65
2020/12/25 09:37:09;;;;;;;20.85;12.27;;;;;;;;;;4971868;28;20051;-62
2020/12/25 09:39:44;;;;;;;19.20;11.57;;;;;;;;;;4972309;28;20086;-63
2020/12/25 09:42:11;;;;;;;21.33;10.68;;;;;;;;;;4972493;28;20042;-63
2020/12/25 09:44:37;;;;;;;16.25;10.10;;;;;;;;;;4973956;28;20078;-63
2020/12/25 09:47:04;;;;;;;15.18;9.68;;;;;;;;;;4976198;28;20050;-63
2020/12/25 09:49:30;;;;;;;17.42;10.07;;;;;;;;;;4976663;28;20074;-63
2020/12/25 09:52:01;;;;;;;17.13;10.85;;;;;;;;;;4976722;28;20105;-63
2020/12/25 09:54:27;;;;;;;15.27;9.73;;;;;;;;;;4976778;28;20082;-63
2020/12/25 09:56:53;;;;;;;16.80;10.38;;;;;;;;;;4976099;28;20055;-62
2020/12/25 09:59:22;;;;;;;13.82;8.75;;;;;;;;;;4976512;28;21212;-64
2020/12/25 10:01:48;;;;;;;13.98;8.80;;;;;;;;;;4975795;28;20050;-64
2020/12/25 10:04:15;;;;;;;17.50;10.55;;;;;;;;;;4975907;28;20194;-63
2020/12/25 10:06:41;;;;;;;18.85;10.70;;;;;;;;;;4974786;28;20055;-63
2020/12/25 10:09:07;;;;;;;15.27;9.52;;;;;;;;;;4975472;28;20047;-64
2020/12/25 10:11:33;;;;;;;17.05;8.50;;;;;;;;;;4975484;28;20038;-65
2020/12/25 10:17:47;;;;;;;15.85;8.82;;;;;;;;;;4983643;23;20049;-64
2020/12/25 10:20:13;;;;;;;12.00;8.48;;;;;;;;;;4957380;28;20054;-63
2020/12/25 10:22:39;;;;;;;17.98;9.82;;;;;;;;;;4957627;28;20045;-64
2020/12/25 10:25:05;;;;;;;14.15;8.98;;;;;;;;;;4955076;28;20374;-63
2020/12/25 10:27:39;;;;;;;11.43;8.25;;;;;;;;;;4945276;28;20058;-63
2020/12/25 10:30:06;;;;;;;10.88;6.68;;;;;;;;;;4942679;23;20065;-64
2020/12/25 10:35:46;;;;;;;13.60;9.05;;;;;;;;;;4929184;29;20047;-64
2020/12/25 10:38:13;;;;;;;14.20;8.23;;;;;;;;;;4928765;29;20138;-63
2020/12/25 10:40:39;;;;;;;13.43;8.18;;;;;;;;;;4922351;29;20063;-65
2020/12/25 10:43:06;;;;;;;10.85;7.53;;;;;;;;;;4923725;29;20047;-63
2020/12/25 10:45:32;;;;;;;10.27;6.40;;;;;;;;;;4900230;28;20051;-62
2020/12/25 10:48:13;;;;;;;10.40;6.70;;;;;;;;;;4939872;23;20159;-64
2020/12/25 10:50:39;;;;;;;11.63;6.82;;;;;;;;;;4948961;29;20047;-67
2020/12/25 10:53:05;;;;;;;9.95;6.53;;;;;;;;;;4943129;29;20070;-63
2020/12/25 10:55:32;;;;;;;12.52;8.18;;;;;;;;;;4941558;29;20090;-62
2020/12/25 10:57:58;;;;;;;9.43;7.18;;;;;;;;;;4943866;29;20050;-64
2020/12/25 11:00:24;;;;;;;9.88;6.38;;;;;;;;;;4945015;29;20402;-64
2020/12/25 11:06:37;;;;;;;9.93;6.60;;;;;;;;;;4982505;23;20114;-62
2020/12/25 11:09:05;;;;;;;9.50;6.85;;;;;;;;;;4955725;28;20513;-65
2020/12/25 11:11:33;;;;;;;8.30;5.97;;;;;;;;;;4955612;28;20051;-65
2020/12/25 11:13:59;;;;;;;9.43;5.78;;;;;;;;;;4957018;28;20509;-62
2020/12/25 11:16:30;;;;;;;25.15;10.32;;;;;;;;;;4957292;28;20382;-64
2020/12/25 11:18:58;;;;;;;10.07;7.18;;;;;;;;;;4957807;28;20051;-64
2020/12/25 11:25:04;;;;;;;11.30;6.90;;;;;;;;;;4973578;23;20057;-66
2020/12/25 11:27:32;;;;;;;12.15;7.70;;;;;;;;;;4973285;28;20042;-66
2020/12/25 11:29:58;;;;;;;12.27;7.28;;;;;;;;;;4973856;28;20065;-67
2020/12/25 11:32:24;;;;;;;11.30;7.25;;;;;;;;;;4973937;28;20132;-67
2020/12/25 11:34:50;;;;;;;10.80;6.50;;;;;;;;;;4973783;28;20101;-67
2020/12/25 11:37:16;;;;;;;7.60;5.65;;;;;;;;;;4986861;23;20082;-66
2020/12/25 11:39:43;;;;;;;9.38;7.00;;;;;;;;;;4966658;28;20057;-68
2020/12/25 11:42:09;;;;;;;9.23;5.68;;;;;;;;;;4964294;28;20133;-67
2020/12/25 11:44:35;;;;;;;13.90;7.43;;;;;;;;;;4957213;28;20057;-67
2020/12/25 11:47:01;;;;;;;14.25;7.88;;;;;;;;;;4956017;28;20051;-68
2020/12/25 11:49:27;;;;;;;14.85;8.30;;;;;;;;;;4956264;28;20043;-65
2020/12/25 11:51:56;;;;;;;11.85;7.22;;;;;;;;;;4957104;28;20054;-71
2020/12/25 11:54:23;;;;;;;11.32;6.88;;;;;;;;;;4961115;28;20133;-66
2020/12/25 11:56:51;;;;;;;11.68;5.35;;;;;;;;;;4963686;28;20050;-66
2020/12/25 11:59:17;;;;;;;10.02;5.55;;;;;;;;;;4963925;28;20050;-66
2020/12/25 12:01:45;;;;;;;6.53;5.05;;;;;;;;;;4961682;28;20051;-65
2020/12/25 12:04:11;;;;;;;6.50;5.03;;;;;;;;;;4964022;28;20107;-65
2020/12/25 12:06:37;;;;;;;8.77;5.53;;;;;;;;;;4942422;28;20155;-65
2020/12/25 12:09:04;;;;;;;7.40;4.53;;;;;;;;;;4966833;28;20047;-64
2020/12/25 12:11:30;;;;;;;7.82;5.07;;;;;;;;;;4968192;28;20051;-65
2020/12/25 12:13:56;;;;;;;7.30;5.18;;;;;;;;;;4978465;23;20055;-65
2020/12/25 12:16:24;;;;;;;6.55;4.80;;;;;;;;;;4943277;29;20047;-64
2020/12/25 12:18:52;;;;;;;10.50;5.05;;;;;;;;;;4923997;29;20158;-63
2020/12/25 12:21:18;;;;;;;11.88;5.20;;;;;;;;;;4940199;29;20483;-63
2020/12/25 12:23:44;;;;;;;8.20;4.97;;;;;;;;;;4946329;29;20054;-63
2020/12/25 12:26:11;;;;;;;10.13;5.90;;;;;;;;;;4940812;29;20047;-65
2020/12/25 12:28:37;;;;;;;8.23;5.10;;;;;;;;;;4940023;29;20099;-63
2020/12/25 12:31:03;;;;;;;9.63;5.75;;;;;;;;;;4941420;29;20431;-63
2020/12/25 12:33:30;;;;;;;5.85;4.90;;;;;;;;;;4939749;29;20044;-63
2020/12/25 12:35:56;;;;;;;9.93;4.78;;;;;;;;;;4944582;29;20064;-62
2020/12/25 12:38:22;;;;;;;10.07;4.80;;;;;;;;;;4937201;29;20141;-64
2020/12/25 12:43:31;;;;;;;7.10;4.35;;;;;;;;;;4949036;29;20047;-63
2020/12/25 12:45:58;;;;;;;8.90;3.90;;;;;;;;;;4951521;29;20070;-63
2020/12/25 12:48:24;;;;;;;7.45;4.07;;;;;;;;;;4952739;29;20379;-65
2020/12/25 12:50:50;;;;;;;8.00;4.50;;;;;;;;;;4937636;29;20047;-67
2020/12/25 12:53:17;;;;;;;7.88;4.97;;;;;;;;;;4952057;29;20486;-69
2020/12/25 12:55:43;;;;;;;8.00;4.85;;;;;;;;;;4952909;29;20058;-67
2020/12/25 12:58:11;;;;;;;10.13;4.93;;;;;;;;;;4939219;29;20113;-67
2020/12/25 13:00:54;;;;;;;4.82;3.60;;;;;;;;;;4939183;29;20083;-66
2020/12/25 13:03:20;;;;;;;6.32;3.90;;;;;;;;;;4936694;29;20406;-65
2020/12/25 13:05:46;;;;;;;5.53;4.00;;;;;;;;;;4951917;29;20051;-64
2020/12/25 13:08:12;;;;;;;7.22;4.00;;;;;;;;;;4952706;29;20054;-63
2020/12/25 13:10:41;;;;;;;7.32;3.92;;;;;;;;;;4952778;29;20434;-61
2020/12/25 13:13:07;;;;;;;6.95;3.67;;;;;;;;;;4936869;29;20054;-66
2020/12/25 13:15:33;;;;;;;6.13;4.18;;;;;;;;;;4959385;28;20054;-66
2020/12/25 13:17:59;;;;;;;4.88;3.85;;;;;;;;;;4959311;28;20047;-66
2020/12/25 13:20:26;;;;;;;4.88;3.75;;;;;;;;;;4958990;28;20051;-66
2020/12/25 13:22:52;;;;;;;7.80;3.72;;;;;;;;;;4969836;23;20035;-67
2020/12/25 13:25:18;;;;;;;11.27;5.28;;;;;;;;;;4948821;29;20043;-66
2020/12/25 13:27:44;;;;;;;16.60;7.15;;;;;;;;;;4933683;29;20055;-66
2020/12/25 13:30:10;;;;;;;10.88;5.82;;;;;;;;;;4949393;29;20055;-66
2020/12/25 13:32:36;;;;;;;7.75;5.22;;;;;;;;;;4933944;29;20074;-66
2020/12/25 13:35:03;;;;;;;9.45;5.22;;;;;;;;;;4946536;29;20054;-67
2020/12/25 13:37:29;;;;;;;10.65;6.80;;;;;;;;;;4949293;29;20047;-67
2020/12/25 13:39:55;;;;;;;9.68;4.45;;;;;;;;;;4933937;29;20051;-67
2020/12/25 13:42:26;;;;;;;6.47;4.70;;;;;;;;;;4932027;29;20047;-67
2020/12/25 13:44:52;;;;;;;9.25;5.97;;;;;;;;;;4933606;29;20055;-66
2020/12/25 13:47:18;;;;;;;6.32;4.63;;;;;;;;;;4948100;29;20059;-67
2020/12/25 13:49:44;;;;;;;6.65;4.60;;;;;;;;;;4949144;29;20051;-66
2020/12/25 13:52:11;;;;;;;6.40;4.53;;;;;;;;;;4933079;29;20490;-66
2020/12/25 13:54:38;;;;;;;6.13;3.83;;;;;;;;;;4949176;29;20507;-66
2020/12/25 13:57:04;;;;;;;6.13;4.45;;;;;;;;;;4948284;29;20054;-65
2020/12/25 13:59:30;;;;;;;5.57;4.13;;;;;;;;;;4949797;29;20054;-65
2020/12/25 14:01:56;;;;;;;7.43;4.35;;;;;;;;;;4934007;29;20062;-65
2020/12/25 14:04:22;;;;;;;8.57;5.22;;;;;;;;;;4934321;29;20051;-66
2020/12/25 14:06:49;;;;;;;5.47;4.43;;;;;;;;;;4950744;29;20402;-65
2020/12/25 14:09:15;;;;;;;6.72;4.35;;;;;;;;;;4933490;29;20402;-66
2020/12/25 14:11:41;;;;;;;7.28;5.00;;;;;;;;;;4950104;29;20047;-66
2020/12/25 14:14:07;;;;;;;4.78;4.10;;;;;;;;;;4949357;29;20051;-65
2020/12/25 14:16:33;;;;;;;4.78;4.10;;;;;;;;;;4949382;29;20051;-65
2020/12/25 14:19:00;;;;;;;7.38;4.70;;;;;;;;;;4950011;29;20055;-66
2020/12/25 14:21:31;;;;;;;6.55;4.80;;;;;;;;;;4949964;29;20059;-66
2020/12/25 14:23:57;;;;;;;6.60;5.30;;;;;;;;;;4949271;29;20065;-65
2020/12/25 14:26:23;;;;;;;6.28;4.32;;;;;;;;;;4933137;29;20055;-66
2020/12/25 14:28:50;;;;;;;6.38;3.83;;;;;;;;;;4933726;29;20058;-65
2020/12/25 14:31:16;;;;;;;5.72;4.28;;;;;;;;;;4953113;28;20296;-66
2020/12/25 14:33:42;;;;;;;7.53;5.05;;;;;;;;;;4936082;29;20345;-66
2020/12/25 14:36:11;;;;;;;8.50;5.20;;;;;;;;;;4953440;29;20050;-66
2020/12/25 14:38:37;;;;;;;7.00;4.95;;;;;;;;;;4953286;28;20560;-66
2020/12/25 14:41:05;;;;;;;6.65;4.82;;;;;;;;;;4936506;29;20471;-65
2020/12/25 14:43:33;;;;;;;12.25;6.82;;;;;;;;;;4937289;29;20051;-66
2020/12/25 14:46:00;;;;;;;6.95;5.03;;;;;;;;;;4944084;28;20508;-65
2020/12/25 14:48:29;;;;;;;7.45;5.57;;;;;;;;;;4972353;28;20057;-66
2020/12/25 14:50:55;;;;;;;8.32;4.90;;;;;;;;;;4969731;28;20062;-66
2020/12/25 14:53:25;;;;;;;5.85;4.13;;;;;;;;;;4937384;29;20517;-66
2020/12/25 14:55:51;;;;;;;4.65;3.80;;;;;;;;;;4936201;29;20066;-66
2020/12/25 14:58:18;;;;;;;5.50;3.97;;;;;;;;;;4937163;29;20054;-66
2020/12/25 15:00:44;;;;;;;5.82;3.70;;;;;;;;;;4936792;29;20055;-67
2020/12/25 15:03:10;;;;;;;4.25;3.20;;;;;;;;;;4952683;29;20047;-66